sensor_id;sensor_type;location;lat;lon;timestamp;temperature;humidity
64689;DHT22;62504;46.070;14.492;2023-09-19T00:00:23;20.40;99.90
64689;DHT22;62504;46.070;14.492;2023-09-19T00:02:56;20.50;99.90
64689;DHT22;62504;46.070;14.492;2023-09-19T00:05:23;20.50;99.90
64689;DHT22;62504;46.070;14.492;2023-09-19T00:07:53;20.50;99.90
64689;DHT22;62504;46.070;14.492;2023-09-19T00:10:21;20.60;99.90
64689;DHT22;62504;46.070;14.492;2023-09-19T00:12:47;20.60;99.90
64689;DHT22;62504;46.070;14.492;2023-09-19T00:15:13;20.60;99.90
64689;DHT22;62504;46.070;14.492;2023-09-19T00:17:43;20.60;99.90
64689;DHT22;62504;46.070;14.492;2023-09-19T00:20:09;20.60;99.90
64689;DHT22;62504;46.070;14.492;2023-09-19T00:22:41;20.60;99.90
64689;DHT22;62504;46.070;14.492;2023-09-19T00:25:11;20.60;99.90
64689;DHT22;62504;46.070;14.492;2023-09-19T00:27:38;20.50;99.90
64689;DHT22;62504;46.070;14.492;2023-09-19T00:30:08;20.50;99.90
64689;DHT22;62504;46.070;14.492;2023-09-19T00:32:50;20.40;99.90
64689;DHT22;62504;46.070;14.492;2023-09-19T00:35:18;20.40;99.90
64689;DHT22;62504;46.070;14.492;2023-09-19T00:37:49;20.40;99.90
64689;DHT22;62504;46.070;14.492;2023-09-19T00:40:15;20.40;99.90
64689;DHT22;62504;46.070;14.492;2023-09-19T00:42:48;20.50;99.90
64689;DHT22;62504;46.070;14.492;2023-09-19T00:45:16;20.40;99.90
64689;DHT22;62504;46.070;14.492;2023-09-19T00:47:44;20.50;99.90
64689;DHT22;62504;46.070;14.492;2023-09-19T00:50:16;20.50;99.90
64689;DHT22;62504;46.070;14.492;2023-09-19T00:52:43;20.40;99.90
64689;DHT22;62504;46.070;14.492;2023-09-19T00:55:10;20.50;99.90
64689;DHT22;62504;46.070;14.492;2023-09-19T00:57:38;20.50;99.90
64689;DHT22;62504;46.070;14.492;2023-09-19T01:00:05;20.50;99.90
64689;DHT22;62504;46.070;14.492;2023-09-19T01:02:36;20.50;99.90
64689;DHT22;62504;46.070;14.492;2023-09-19T01:05:03;20.50;99.90
64689;DHT22;62504;46.070;14.492;2023-09-19T01:07:32;20.50;99.90
64689;DHT22;62504;46.070;14.492;2023-09-19T01:09:59;20.60;99.90
64689;DHT22;62504;46.070;14.492;2023-09-19T01:29:23;20.60;99.90
64689;DHT22;62504;46.070;14.492;2023-09-19T01:31:59;20.60;99.90
64689;DHT22;62504;46.070;14.492;2023-09-19T01:37:16;20.60;99.90
64689;DHT22;62504;46.070;14.492;2023-09-19T01:39:59;20.60;99.90
64689;DHT22;62504;46.070;14.492;2023-09-19T01:42:44;20.60;99.90
64689;DHT22;62504;46.070;14.492;2023-09-19T01:45:28;20.60;99.90
64689;DHT22;62504;46.070;14.492;2023-09-19T01:48:05;20.60;99.90
64689;DHT22;62504;46.070;14.492;2023-09-19T01:51:00;20.60;99.90
64689;DHT22;62504;46.070;14.492;2023-09-19T01:54:02;20.50;99.90
64689;DHT22;62504;46.070;14.492;2023-09-19T01:56:45;20.50;99.90
64689;DHT22;62504;46.070;14.492;2023-09-19T01:59:16;20.60;99.90
64689;DHT22;62504;46.070;14.492;2023-09-19T02:01:44;20.60;99.90
64689;DHT22;62504;46.070;14.492;2023-09-19T02:04:10;20.50;99.90
64689;DHT22;62504;46.070;14.492;2023-09-19T02:06:40;20.60;99.90
64689;DHT22;62504;46.070;14.492;2023-09-19T02:09:06;20.60;99.90
64689;DHT22;62504;46.070;14.492;2023-09-19T02:11:32;20.60;99.90
64689;DHT22;62504;46.070;14.492;2023-09-19T02:13:58;20.60;99.90
64689;DHT22;62504;46.070;14.492;2023-09-19T02:16:24;20.60;99.90
64689;DHT22;62504;46.070;14.492;2023-09-19T02:18:50;20.50;99.90
64689;DHT22;62504;46.070;14.492;2023-09-19T02:21:17;20.60;99.90
64689;DHT22;62504;46.070;14.492;2023-09-19T02:23:44;20.60;99.90
64689;DHT22;62504;46.070;14.492;2023-09-19T02:26:10;20.60;99.90
64689;DHT22;62504;46.070;14.492;2023-09-19T02:28:37;20.50;99.90
64689;DHT22;62504;46.070;14.492;2023-09-19T02:31:03;20.60;99.90
64689;DHT22;62504;46.070;14.492;2023-09-19T02:33:31;20.50;99.90
64689;DHT22;62504;46.070;14.492;2023-09-19T02:35:58;20.50;99.90
64689;DHT22;62504;46.070;14.492;2023-09-19T02:38:25;20.50;99.90
64689;DHT22;62504;46.070;14.492;2023-09-19T02:40:52;20.50;99.90
64689;DHT22;62504;46.070;14.492;2023-09-19T02:43:17;20.40;99.90
64689;DHT22;62504;46.070;14.492;2023-09-19T02:45:45;20.40;99.90
64689;DHT22;62504;46.070;14.492;2023-09-19T02:48:12;20.50;99.90
64689;DHT22;62504;46.070;14.492;2023-09-19T02:50:38;20.40;99.90
64689;DHT22;62504;46.070;14.492;2023-09-19T02:53:05;20.50;99.90
64689;DHT22;62504;46.070;14.492;2023-09-19T02:55:32;20.50;99.90
64689;DHT22;62504;46.070;14.492;2023-09-19T02:57:58;20.40;99.90
64689;DHT22;62504;46.070;14.492;2023-09-19T03:00:24;20.50;99.90
64689;DHT22;62504;46.070;14.492;2023-09-19T03:02:52;20.50;99.90
64689;DHT22;62504;46.070;14.492;2023-09-19T03:05:19;20.50;99.90
64689;DHT22;62504;46.070;14.492;2023-09-19T03:07:45;20.40;99.90
64689;DHT22;62504;46.070;14.492;2023-09-19T03:10:20;20.40;99.90
64689;DHT22;62504;46.070;14.492;2023-09-19T03:12:50;20.50;99.90
64689;DHT22;62504;46.070;14.492;2023-09-19T03:15:15;20.50;99.90
64689;DHT22;62504;46.070;14.492;2023-09-19T03:17:45;20.40;99.90
64689;DHT22;62504;46.070;14.492;2023-09-19T03:20:13;20.40;99.90
64689;DHT22;62504;46.070;14.492;2023-09-19T03:22:39;20.40;99.90
64689;DHT22;62504;46.070;14.492;2023-09-19T03:25:06;20.40;99.90
64689;DHT22;62504;46.070;14.492;2023-09-19T03:27:36;20.50;99.90
64689;DHT22;62504;46.070;14.492;2023-09-19T03:30:03;20.50;99.90
64689;DHT22;62504;46.070;14.492;2023-09-19T03:32:36;20.40;99.90
64689;DHT22;62504;46.070;14.492;2023-09-19T03:35:03;20.40;99.90
64689;DHT22;62504;46.070;14.492;2023-09-19T03:37:31;20.40;99.90
64689;DHT22;62504;46.070;14.492;2023-09-19T03:39:58;20.40;99.90
64689;DHT22;62504;46.070;14.492;2023-09-19T03:42:24;20.50;99.90
64689;DHT22;62504;46.070;14.492;2023-09-19T03:44:52;20.40;99.90
64689;DHT22;62504;46.070;14.492;2023-09-19T03:47:18;20.40;99.90
64689;DHT22;62504;46.070;14.492;2023-09-19T03:49:44;20.40;99.90
64689;DHT22;62504;46.070;14.492;2023-09-19T03:52:10;20.40;99.90
64689;DHT22;62504;46.070;14.492;2023-09-19T03:54:35;20.40;99.90
64689;DHT22;62504;46.070;14.492;2023-09-19T03:57:01;20.30;99.90
64689;DHT22;62504;46.070;14.492;2023-09-19T03:59:29;20.40;99.90
64689;DHT22;62504;46.070;14.492;2023-09-19T04:01:55;20.30;99.90
64689;DHT22;62504;46.070;14.492;2023-09-19T04:04:22;20.40;99.90
64689;DHT22;62504;46.070;14.492;2023-09-19T04:06:53;20.30;99.90
64689;DHT22;62504;46.070;14.492;2023-09-19T04:09:18;20.30;99.90
64689;DHT22;62504;46.070;14.492;2023-09-19T04:11:44;20.30;99.90
64689;DHT22;62504;46.070;14.492;2023-09-19T04:14:10;20.30;99.90
64689;DHT22;62504;46.070;14.492;2023-09-19T04:16:35;20.30;99.90
64689;DHT22;62504;46.070;14.492;2023-09-19T04:19:01;20.30;99.90
64689;DHT22;62504;46.070;14.492;2023-09-19T04:21:28;20.40;99.90
64689;DHT22;62504;46.070;14.492;2023-09-19T04:23:54;20.30;99.90
64689;DHT22;62504;46.070;14.492;2023-09-19T04:26:20;20.30;99.90
64689;DHT22;62504;46.070;14.492;2023-09-19T04:28:47;20.20;99.90
64689;DHT22;62504;46.070;14.492;2023-09-19T04:31:12;20.30;99.90
64689;DHT22;62504;46.070;14.492;2023-09-19T04:33:39;20.20;99.90
64689;DHT22;62504;46.070;14.492;2023-09-19T04:36:05;20.10;99.90
64689;DHT22;62504;46.070;14.492;2023-09-19T04:38:33;20.10;99.90
64689;DHT22;62504;46.070;14.492;2023-09-19T04:40:59;20.20;99.90
64689;DHT22;62504;46.070;14.492;2023-09-19T04:43:25;20.10;99.90
64689;DHT22;62504;46.070;14.492;2023-09-19T04:45:51;20.10;99.90
64689;DHT22;62504;46.070;14.492;2023-09-19T04:48:23;20.10;99.90
64689;DHT22;62504;46.070;14.492;2023-09-19T04:50:53;20.10;99.90
64689;DHT22;62504;46.070;14.492;2023-09-19T04:53:19;20.10;99.90
64689;DHT22;62504;46.070;14.492;2023-09-19T04:55:50;20.00;99.90
64689;DHT22;62504;46.070;14.492;2023-09-19T04:58:16;19.90;99.90
64689;DHT22;62504;46.070;14.492;2023-09-19T05:00:43;19.90;99.90
64689;DHT22;62504;46.070;14.492;2023-09-19T05:03:08;19.80;99.90
64689;DHT22;62504;46.070;14.492;2023-09-19T05:05:34;19.80;99.90
64689;DHT22;62504;46.070;14.492;2023-09-19T05:08:00;19.80;99.90
64689;DHT22;62504;46.070;14.492;2023-09-19T05:10:26;19.60;99.90
64689;DHT22;62504;46.070;14.492;2023-09-19T05:12:54;19.50;99.90
64689;DHT22;62504;46.070;14.492;2023-09-19T05:15:20;19.50;99.90
64689;DHT22;62504;46.070;14.492;2023-09-19T05:17:53;19.50;99.90
64689;DHT22;62504;46.070;14.492;2023-09-19T05:20:21;19.50;99.90
64689;DHT22;62504;46.070;14.492;2023-09-19T05:23:12;19.50;99.90
64689;DHT22;62504;46.070;14.492;2023-09-19T05:25:39;19.60;99.90
64689;DHT22;62504;46.070;14.492;2023-09-19T05:28:06;19.60;99.90
64689;DHT22;62504;46.070;14.492;2023-09-19T05:30:33;19.70;99.90
64689;DHT22;62504;46.070;14.492;2023-09-19T05:33:02;19.70;99.90
64689;DHT22;62504;46.070;14.492;2023-09-19T05:35:28;19.70;99.90
64689;DHT22;62504;46.070;14.492;2023-09-19T05:37:54;19.70;99.90
64689;DHT22;62504;46.070;14.492;2023-09-19T05:40:20;19.80;99.90
64689;DHT22;62504;46.070;14.492;2023-09-19T05:42:47;19.80;99.90
64689;DHT22;62504;46.070;14.492;2023-09-19T05:45:13;19.80;99.90
64689;DHT22;62504;46.070;14.492;2023-09-19T05:47:41;19.90;99.90
64689;DHT22;62504;46.070;14.492;2023-09-19T05:50:11;19.80;99.90
64689;DHT22;62504;46.070;14.492;2023-09-19T05:52:38;19.70;99.90
64689;DHT22;62504;46.070;14.492;2023-09-19T05:55:04;19.70;99.90
64689;DHT22;62504;46.070;14.492;2023-09-19T05:57:32;19.80;99.90
64689;DHT22;62504;46.070;14.492;2023-09-19T05:59:58;19.80;99.90
64689;DHT22;62504;46.070;14.492;2023-09-19T06:02:24;19.60;99.90
64689;DHT22;62504;46.070;14.492;2023-09-19T06:04:52;19.60;99.90
64689;DHT22;62504;46.070;14.492;2023-09-19T06:07:18;19.50;99.90
64689;DHT22;62504;46.070;14.492;2023-09-19T06:09:44;19.20;99.90
64689;DHT22;62504;46.070;14.492;2023-09-19T06:12:09;18.90;99.90
64689;DHT22;62504;46.070;14.492;2023-09-19T06:14:39;18.80;99.90
64689;DHT22;62504;46.070;14.492;2023-09-19T06:17:05;19.00;99.90
64689;DHT22;62504;46.070;14.492;2023-09-19T06:19:32;19.10;99.90
64689;DHT22;62504;46.070;14.492;2023-09-19T06:21:58;19.10;99.90
64689;DHT22;62504;46.070;14.492;2023-09-19T06:24:25;19.20;99.90
64689;DHT22;62504;46.070;14.492;2023-09-19T06:26:51;19.20;99.90
64689;DHT22;62504;46.070;14.492;2023-09-19T06:29:18;19.30;99.90
64689;DHT22;62504;46.070;14.492;2023-09-19T06:31:46;19.40;99.90
64689;DHT22;62504;46.070;14.492;2023-09-19T06:34:12;19.40;99.90
64689;DHT22;62504;46.070;14.492;2023-09-19T06:36:41;19.40;99.90
64689;DHT22;62504;46.070;14.492;2023-09-19T06:39:07;19.40;99.90
64689;DHT22;62504;46.070;14.492;2023-09-19T06:41:38;19.50;99.90
64689;DHT22;62504;46.070;14.492;2023-09-19T06:44:05;19.30;99.90
64689;DHT22;62504;46.070;14.492;2023-09-19T06:46:31;18.90;99.90
64689;DHT22;62504;46.070;14.492;2023-09-19T06:49:00;18.80;99.90
64689;DHT22;62504;46.070;14.492;2023-09-19T06:51:32;18.90;99.90
64689;DHT22;62504;46.070;14.492;2023-09-19T06:54:00;18.90;99.90
64689;DHT22;62504;46.070;14.492;2023-09-19T06:56:26;19.00;99.90
64689;DHT22;62504;46.070;14.492;2023-09-19T06:58:52;18.90;99.90
64689;DHT22;62504;46.070;14.492;2023-09-19T07:01:18;18.80;99.90
64689;DHT22;62504;46.070;14.492;2023-09-19T07:03:43;18.80;99.90
64689;DHT22;62504;46.070;14.492;2023-09-19T07:06:11;18.90;99.90
64689;DHT22;62504;46.070;14.492;2023-09-19T07:08:36;19.00;99.90
64689;DHT22;62504;46.070;14.492;2023-09-19T07:11:04;19.10;99.90
64689;DHT22;62504;46.070;14.492;2023-09-19T07:13:31;19.10;99.90
64689;DHT22;62504;46.070;14.492;2023-09-19T07:15:58;19.10;99.90
64689;DHT22;62504;46.070;14.492;2023-09-19T07:18:25;19.10;99.90
64689;DHT22;62504;46.070;14.492;2023-09-19T07:20:50;19.20;99.90
64689;DHT22;62504;46.070;14.492;2023-09-19T07:23:20;19.20;99.90
64689;DHT22;62504;46.070;14.492;2023-09-19T07:25:48;19.10;99.90
64689;DHT22;62504;46.070;14.492;2023-09-19T07:28:14;19.10;99.90
64689;DHT22;62504;46.070;14.492;2023-09-19T07:30:40;19.10;99.90
64689;DHT22;62504;46.070;14.492;2023-09-19T07:33:07;19.10;99.90
64689;DHT22;62504;46.070;14.492;2023-09-19T07:35:34;19.10;99.90
64689;DHT22;62504;46.070;14.492;2023-09-19T07:37:59;19.20;99.90
64689;DHT22;62504;46.070;14.492;2023-09-19T07:40:27;19.20;99.90
64689;DHT22;62504;46.070;14.492;2023-09-19T07:42:55;19.20;99.90
64689;DHT22;62504;46.070;14.492;2023-09-19T07:45:20;19.20;99.90
64689;DHT22;62504;46.070;14.492;2023-09-19T07:47:47;19.20;99.90
64689;DHT22;62504;46.070;14.492;2023-09-19T07:50:13;19.20;99.90
64689;DHT22;62504;46.070;14.492;2023-09-19T07:52:40;19.20;99.90
64689;DHT22;62504;46.070;14.492;2023-09-19T07:55:06;19.10;99.90
64689;DHT22;62504;46.070;14.492;2023-09-19T07:57:36;19.10;99.90
64689;DHT22;62504;46.070;14.492;2023-09-19T08:00:03;18.90;99.90
64689;DHT22;62504;46.070;14.492;2023-09-19T08:02:39;18.80;99.90
64689;DHT22;62504;46.070;14.492;2023-09-19T08:05:06;18.80;99.90
64689;DHT22;62504;46.070;14.492;2023-09-19T08:07:35;18.90;99.90
64689;DHT22;62504;46.070;14.492;2023-09-19T08:10:02;18.90;99.90
64689;DHT22;62504;46.070;14.492;2023-09-19T08:12:28;19.00;99.90
64689;DHT22;62504;46.070;14.492;2023-09-19T08:14:55;19.00;99.90
64689;DHT22;62504;46.070;14.492;2023-09-19T08:17:21;19.10;99.90
64689;DHT22;62504;46.070;14.492;2023-09-19T08:19:49;19.10;99.90
64689;DHT22;62504;46.070;14.492;2023-09-19T08:22:19;19.10;99.90
64689;DHT22;62504;46.070;14.492;2023-09-19T08:24:45;19.10;99.90
64689;DHT22;62504;46.070;14.492;2023-09-19T08:27:11;19.20;99.90
64689;DHT22;62504;46.070;14.492;2023-09-19T08:29:37;19.10;99.90
64689;DHT22;62504;46.070;14.492;2023-09-19T08:32:04;19.10;99.90
64689;DHT22;62504;46.070;14.492;2023-09-19T08:34:30;19.10;99.90
64689;DHT22;62504;46.070;14.492;2023-09-19T08:36:58;19.10;99.90
64689;DHT22;62504;46.070;14.492;2023-09-19T08:39:25;19.10;99.90
64689;DHT22;62504;46.070;14.492;2023-09-19T08:42:00;19.10;99.90
64689;DHT22;62504;46.070;14.492;2023-09-19T08:44:27;19.10;99.90
64689;DHT22;62504;46.070;14.492;2023-09-19T08:47:01;18.90;99.90
64689;DHT22;62504;46.070;14.492;2023-09-19T08:49:39;18.90;99.90
64689;DHT22;62504;46.070;14.492;2023-09-19T08:52:25;19.00;99.90
64689;DHT22;62504;46.070;14.492;2023-09-19T08:54:56;19.00;99.90
64689;DHT22;62504;46.070;14.492;2023-09-19T08:57:24;19.00;99.90
64689;DHT22;62504;46.070;14.492;2023-09-19T08:59:51;19.00;99.90
64689;DHT22;62504;46.070;14.492;2023-09-19T09:02:17;19.00;99.90
64689;DHT22;62504;46.070;14.492;2023-09-19T09:04:49;19.00;99.90
64689;DHT22;62504;46.070;14.492;2023-09-19T09:07:16;19.00;99.90
64689;DHT22;62504;46.070;14.492;2023-09-19T09:09:44;19.00;99.90
64689;DHT22;62504;46.070;14.492;2023-09-19T09:12:14;19.00;99.90
64689;DHT22;62504;46.070;14.492;2023-09-19T09:14:44;18.90;99.90
64689;DHT22;62504;46.070;14.492;2023-09-19T09:17:18;19.00;99.90
64689;DHT22;62504;46.070;14.492;2023-09-19T09:19:47;19.00;99.90
64689;DHT22;62504;46.070;14.492;2023-09-19T09:22:13;19.10;99.90
64689;DHT22;62504;46.070;14.492;2023-09-19T09:25:00;19.10;99.90
64689;DHT22;62504;46.070;14.492;2023-09-19T09:27:30;19.20;99.90
64689;DHT22;62504;46.070;14.492;2023-09-19T09:29:58;19.30;99.90
64689;DHT22;62504;46.070;14.492;2023-09-19T09:32:29;19.30;99.90
64689;DHT22;62504;46.070;14.492;2023-09-19T09:34:56;19.30;99.90
64689;DHT22;62504;46.070;14.492;2023-09-19T09:37:23;19.30;99.90
64689;DHT22;62504;46.070;14.492;2023-09-19T09:39:57;19.30;99.90
64689;DHT22;62504;46.070;14.492;2023-09-19T09:42:34;19.30;99.90
64689;DHT22;62504;46.070;14.492;2023-09-19T09:45:25;19.40;99.90
64689;DHT22;62504;46.070;14.492;2023-09-19T09:48:03;19.40;99.90
64689;DHT22;62504;46.070;14.492;2023-09-19T09:50:36;19.40;99.90
64689;DHT22;62504;46.070;14.492;2023-09-19T09:53:23;19.50;99.90
64689;DHT22;62504;46.070;14.492;2023-09-19T09:56:05;19.60;99.90
64689;DHT22;62504;46.070;14.492;2023-09-19T09:58:36;19.60;99.90
64689;DHT22;62504;46.070;14.492;2023-09-19T10:01:04;19.70;99.90
64689;DHT22;62504;46.070;14.492;2023-09-19T10:03:38;19.80;99.90
64689;DHT22;62504;46.070;14.492;2023-09-19T10:06:13;19.80;99.90
64689;DHT22;62504;46.070;14.492;2023-09-19T10:09:06;19.80;99.90
64689;DHT22;62504;46.070;14.492;2023-09-19T10:12:03;19.80;99.90
64689;DHT22;62504;46.070;14.492;2023-09-19T10:14:32;19.80;99.90
64689;DHT22;62504;46.070;14.492;2023-09-19T10:17:01;19.80;99.90
64689;DHT22;62504;46.070;14.492;2023-09-19T10:19:33;19.80;99.90
64689;DHT22;62504;46.070;14.492;2023-09-19T10:22:02;19.80;99.90
64689;DHT22;62504;46.070;14.492;2023-09-19T10:24:30;19.90;99.90
64689;DHT22;62504;46.070;14.492;2023-09-19T10:26:59;20.00;99.90
64689;DHT22;62504;46.070;14.492;2023-09-19T10:29:28;20.00;99.90
64689;DHT22;62504;46.070;14.492;2023-09-19T10:31:58;20.10;99.90
64689;DHT22;62504;46.070;14.492;2023-09-19T10:34:25;20.10;99.90
64689;DHT22;62504;46.070;14.492;2023-09-19T10:36:52;20.20;99.90
64689;DHT22;62504;46.070;14.492;2023-09-19T10:39:19;20.30;99.90
64689;DHT22;62504;46.070;14.492;2023-09-19T10:41:51;20.20;99.90
64689;DHT22;62504;46.070;14.492;2023-09-19T10:44:26;20.30;99.90
64689;DHT22;62504;46.070;14.492;2023-09-19T10:46:52;20.30;99.90
64689;DHT22;62504;46.070;14.492;2023-09-19T10:49:20;20.40;99.90
64689;DHT22;62504;46.070;14.492;2023-09-19T10:51:47;20.40;99.90
64689;DHT22;62504;46.070;14.492;2023-09-19T10:54:17;20.50;99.90
64689;DHT22;62504;46.070;14.492;2023-09-19T10:56:48;20.50;99.90
64689;DHT22;62504;46.070;14.492;2023-09-19T10:59:20;20.40;99.90
64689;DHT22;62504;46.070;14.492;2023-09-19T11:07:12;20.70;99.90
64689;DHT22;62504;46.070;14.492;2023-09-19T11:09:53;20.80;99.90
64689;DHT22;62504;46.070;14.492;2023-09-19T11:15:00;20.90;99.90
64689;DHT22;62504;46.070;14.492;2023-09-19T11:30:33;21.20;99.90
64689;DHT22;62504;46.070;14.492;2023-09-19T11:43:53;21.20;99.90
64689;DHT22;62504;46.070;14.492;2023-09-19T11:46:21;21.40;99.90
64689;DHT22;62504;46.070;14.492;2023-09-19T11:48:51;21.40;99.90
64689;DHT22;62504;46.070;14.492;2023-09-19T11:53:56;21.50;99.90
64689;DHT22;62504;46.070;14.492;2023-09-19T11:56:26;21.60;99.90
64689;DHT22;62504;46.070;14.492;2023-09-19T11:58:57;21.60;99.90
64689;DHT22;62504;46.070;14.492;2023-09-19T12:01:31;21.60;99.90
64689;DHT22;62504;46.070;14.492;2023-09-19T12:03:59;21.20;99.90
64689;DHT22;62504;46.070;14.492;2023-09-19T12:06:26;21.00;99.90
64689;DHT22;62504;46.070;14.492;2023-09-19T12:08:52;21.00;99.90
64689;DHT22;62504;46.070;14.492;2023-09-19T12:11:30;21.20;99.90
64689;DHT22;62504;46.070;14.492;2023-09-19T12:13:59;21.40;99.90
64689;DHT22;62504;46.070;14.492;2023-09-19T12:16:26;21.50;99.90
64689;DHT22;62504;46.070;14.492;2023-09-19T12:18:56;21.70;99.90
64689;DHT22;62504;46.070;14.492;2023-09-19T12:21:28;21.80;99.90
64689;DHT22;62504;46.070;14.492;2023-09-19T12:24:07;21.70;99.90
64689;DHT22;62504;46.070;14.492;2023-09-19T12:26:43;21.70;99.90
64689;DHT22;62504;46.070;14.492;2023-09-19T12:29:20;21.70;99.90
64689;DHT22;62504;46.070;14.492;2023-09-19T12:31:55;21.80;99.90
64689;DHT22;62504;46.070;14.492;2023-09-19T12:34:32;21.90;99.90
64689;DHT22;62504;46.070;14.492;2023-09-19T12:39:42;21.80;99.90
64689;DHT22;62504;46.070;14.492;2023-09-19T12:42:10;21.80;99.90
64689;DHT22;62504;46.070;14.492;2023-09-19T12:44:50;22.00;99.90
64689;DHT22;62504;46.070;14.492;2023-09-19T12:47:21;22.00;99.90
64689;DHT22;62504;46.070;14.492;2023-09-19T12:50:15;22.10;99.90
64689;DHT22;62504;46.070;14.492;2023-09-19T12:52:52;22.10;99.90
64689;DHT22;62504;46.070;14.492;2023-09-19T12:55:26;22.00;99.90
64689;DHT22;62504;46.070;14.492;2023-09-19T12:58:08;22.10;99.90
64689;DHT22;62504;46.070;14.492;2023-09-19T13:00:39;21.90;99.90
64689;DHT22;62504;46.070;14.492;2023-09-19T13:05:55;21.80;99.90
64689;DHT22;62504;46.070;14.492;2023-09-19T13:08:22;21.80;99.90
64689;DHT22;62504;46.070;14.492;2023-09-19T13:16:33;21.90;99.90
64689;DHT22;62504;46.070;14.492;2023-09-19T13:18:59;21.80;99.90
64689;DHT22;62504;46.070;14.492;2023-09-19T13:21:34;21.80;99.90
64689;DHT22;62504;46.070;14.492;2023-09-19T13:24:22;21.80;99.90
64689;DHT22;62504;46.070;14.492;2023-09-19T13:26:48;21.90;99.90
64689;DHT22;62504;46.070;14.492;2023-09-19T13:29:15;21.90;99.90
64689;DHT22;62504;46.070;14.492;2023-09-19T13:31:50;21.90;99.90
64689;DHT22;62504;46.070;14.492;2023-09-19T13:34:16;21.80;99.90
64689;DHT22;62504;46.070;14.492;2023-09-19T13:36:43;21.90;99.90
64689;DHT22;62504;46.070;14.492;2023-09-19T13:39:09;21.80;99.90
64689;DHT22;62504;46.070;14.492;2023-09-19T13:41:35;21.90;99.90
64689;DHT22;62504;46.070;14.492;2023-09-19T13:44:04;21.90;99.90
64689;DHT22;62504;46.070;14.492;2023-09-19T13:46:30;21.90;99.90
64689;DHT22;62504;46.070;14.492;2023-09-19T13:49:01;22.00;99.90
64689;DHT22;62504;46.070;14.492;2023-09-19T13:51:30;22.00;99.90
64689;DHT22;62504;46.070;14.492;2023-09-19T13:53:58;21.90;99.90
64689;DHT22;62504;46.070;14.492;2023-09-19T13:56:25;22.00;99.90
64689;DHT22;62504;46.070;14.492;2023-09-19T13:58:53;22.00;99.90
64689;DHT22;62504;46.070;14.492;2023-09-19T14:01:20;21.90;99.90
64689;DHT22;62504;46.070;14.492;2023-09-19T14:03:45;21.90;99.90
64689;DHT22;62504;46.070;14.492;2023-09-19T14:06:16;21.90;99.90
64689;DHT22;62504;46.070;14.492;2023-09-19T14:08:43;22.00;99.90
64689;DHT22;62504;46.070;14.492;2023-09-19T14:11:10;22.00;99.90
64689;DHT22;62504;46.070;14.492;2023-09-19T14:13:36;22.00;99.90
64689;DHT22;62504;46.070;14.492;2023-09-19T14:16:05;22.00;99.90
64689;DHT22;62504;46.070;14.492;2023-09-19T14:18:32;22.00;99.90
64689;DHT22;62504;46.070;14.492;2023-09-19T14:20:58;22.10;99.90
64689;DHT22;62504;46.070;14.492;2023-09-19T14:23:23;22.20;99.90
64689;DHT22;62504;46.070;14.492;2023-09-19T14:25:50;22.10;99.90
64689;DHT22;62504;46.070;14.492;2023-09-19T14:28:17;22.10;99.90
64689;DHT22;62504;46.070;14.492;2023-09-19T14:30:43;22.10;99.90
64689;DHT22;62504;46.070;14.492;2023-09-19T14:33:09;22.20;99.90
64689;DHT22;62504;46.070;14.492;2023-09-19T14:35:37;22.10;99.90
64689;DHT22;62504;46.070;14.492;2023-09-19T14:38:03;22.10;99.90
64689;DHT22;62504;46.070;14.492;2023-09-19T14:40:29;22.00;99.90
64689;DHT22;62504;46.070;14.492;2023-09-19T14:42:56;22.00;99.90
64689;DHT22;62504;46.070;14.492;2023-09-19T14:45:22;22.00;99.90
64689;DHT22;62504;46.070;14.492;2023-09-19T14:47:48;22.00;99.90
64689;DHT22;62504;46.070;14.492;2023-09-19T14:50:14;22.00;99.90
64689;DHT22;62504;46.070;14.492;2023-09-19T14:52:41;22.00;99.90
64689;DHT22;62504;46.070;14.492;2023-09-19T14:55:07;22.00;99.90
64689;DHT22;62504;46.070;14.492;2023-09-19T14:57:34;22.00;99.90
64689;DHT22;62504;46.070;14.492;2023-09-19T15:00:00;21.90;99.90
64689;DHT22;62504;46.070;14.492;2023-09-19T15:02:26;21.90;99.90
64689;DHT22;62504;46.070;14.492;2023-09-19T15:04:52;22.00;99.90
64689;DHT22;62504;46.070;14.492;2023-09-19T15:07:18;21.90;99.90
64689;DHT22;62504;46.070;14.492;2023-09-19T15:09:44;21.90;99.90
64689;DHT22;62504;46.070;14.492;2023-09-19T15:12:10;21.90;99.90
64689;DHT22;62504;46.070;14.492;2023-09-19T15:14:40;21.90;99.90
64689;DHT22;62504;46.070;14.492;2023-09-19T15:17:07;21.90;99.90
64689;DHT22;62504;46.070;14.492;2023-09-19T15:19:33;22.00;99.90
64689;DHT22;62504;46.070;14.492;2023-09-19T15:21:58;22.00;99.90
64689;DHT22;62504;46.070;14.492;2023-09-19T15:24:24;22.00;99.90
64689;DHT22;62504;46.070;14.492;2023-09-19T15:26:52;22.00;99.90
64689;DHT22;62504;46.070;14.492;2023-09-19T15:29:18;22.00;99.90
64689;DHT22;62504;46.070;14.492;2023-09-19T15:31:45;22.00;99.90
64689;DHT22;62504;46.070;14.492;2023-09-19T15:34:11;22.00;99.90
64689;DHT22;62504;46.070;14.492;2023-09-19T15:36:39;22.00;99.90
64689;DHT22;62504;46.070;14.492;2023-09-19T15:39:07;22.00;99.90
64689;DHT22;62504;46.070;14.492;2023-09-19T15:41:40;22.10;99.90
64689;DHT22;62504;46.070;14.492;2023-09-19T15:44:17;22.10;99.90
64689;DHT22;62504;46.070;14.492;2023-09-19T15:46:43;22.10;99.90
64689;DHT22;62504;46.070;14.492;2023-09-19T15:49:10;22.10;99.90
64689;DHT22;62504;46.070;14.492;2023-09-19T15:51:36;22.10;99.90
64689;DHT22;62504;46.070;14.492;2023-09-19T15:54:07;22.00;99.90
64689;DHT22;62504;46.070;14.492;2023-09-19T15:56:33;22.00;99.90
64689;DHT22;62504;46.070;14.492;2023-09-19T15:59:02;22.00;99.90
64689;DHT22;62504;46.070;14.492;2023-09-19T16:01:28;22.00;99.90
64689;DHT22;62504;46.070;14.492;2023-09-19T16:03:54;22.00;99.90
64689;DHT22;62504;46.070;14.492;2023-09-19T16:06:26;22.00;99.90
64689;DHT22;62504;46.070;14.492;2023-09-19T16:08:54;22.00;99.90
64689;DHT22;62504;46.070;14.492;2023-09-19T16:11:24;21.90;99.90
64689;DHT22;62504;46.070;14.492;2023-09-19T16:13:51;22.00;99.90
64689;DHT22;62504;46.070;14.492;2023-09-19T16:16:18;21.90;99.90
64689;DHT22;62504;46.070;14.492;2023-09-19T16:18:54;21.90;99.90
64689;DHT22;62504;46.070;14.492;2023-09-19T16:21:25;22.00;99.90
64689;DHT22;62504;46.070;14.492;2023-09-19T16:23:56;21.90;99.90
64689;DHT22;62504;46.070;14.492;2023-09-19T16:26:22;21.90;99.90
64689;DHT22;62504;46.070;14.492;2023-09-19T16:28:54;21.90;99.90
64689;DHT22;62504;46.070;14.492;2023-09-19T16:31:20;21.90;99.90